createdAt,value
2023-03-24T00:04:31.880Z,97345.94
2023-03-24T00:09:56.781Z,97342.88
2023-03-24T00:15:25.795Z,97337.25
2023-03-24T00:20:53.823Z,97331.91
2023-03-24T00:26:21.819Z,97332.34
2023-03-24T00:31:47.814Z,97323.44
2023-03-24T00:37:15.823Z,97321.56
2023-03-24T00:42:39.831Z,97308.06
2023-03-24T00:48:11.826Z,97307.63
2023-03-24T00:53:39.843Z,97301.22
2023-03-24T00:59:06.035Z,97305.44
2023-03-24T01:04:32.831Z,97302.13
2023-03-24T01:10:03.842Z,97306.03
2023-03-24T01:15:32.816Z,97289.00
2023-03-24T01:20:58.893Z,97287.09
2023-03-24T01:26:26.837Z,97287.09
2023-03-24T01:31:52.072Z,97280.28
2023-03-24T01:37:16.865Z,97278.31
2023-03-24T01:42:44.863Z,97269.78
2023-03-24T01:48:09.854Z,97267.28
2023-03-24T01:53:41.863Z,97242.88
2023-03-24T01:59:15.868Z,97241.06
2023-03-24T02:05:00.899Z,97240.19
2023-03-24T02:10:34.889Z,97220.66
2023-03-24T02:16:14.924Z,97244.78
2023-03-24T02:22:12.064Z,97220.84
2023-03-24T02:27:55.886Z,97218.31
2023-03-24T02:34:14.923Z,97211.56
2023-03-24T02:40:06.865Z,97197.22
2023-03-24T02:45:44.919Z,97194.66
2023-03-24T02:51:24.924Z,97209.94
2023-03-24T02:56:56.905Z,97207.81
2023-03-24T03:02:48.916Z,97199.47
2023-03-24T03:08:17.900Z,97201.94
2023-03-24T03:13:48.916Z,97192.00
2023-03-24T03:19:20.897Z,97174.34
2023-03-24T03:24:50.898Z,97160.47
2023-03-24T03:30:25.008Z,97148.03
2023-03-24T03:35:53.973Z,97143.06
2023-03-24T03:41:18.932Z,97119.41
2023-03-24T03:46:46.983Z,97109.66
2023-03-24T03:52:28.010Z,97103.88
2023-03-24T03:57:52.923Z,97098.69
2023-03-24T04:03:55.988Z,97094.94
2023-03-24T04:09:50.937Z,97095.38
2023-03-24T04:15:34.937Z,97083.13
2023-03-24T04:21:43.015Z,97085.81
2023-03-24T04:27:12.951Z,97079.59
2023-03-24T04:32:48.026Z,97082.03
2023-03-24T04:38:23.958Z,97079.59
2023-03-24T04:44:07.948Z,97074.16
2023-03-24T04:49:48.005Z,97055.50
2023-03-24T04:55:39.136Z,97048.44
2023-03-24T05:01:04.932Z,97048.44
2023-03-24T05:06:32.940Z,97055.88
2023-03-24T05:12:01.885Z,97050.09
2023-03-24T05:17:45.017Z,97050.53
2023-03-24T05:23:10.947Z,97040.53
2023-03-24T05:28:40.052Z,97026.66
2023-03-24T05:34:04.958Z,97027.28
2023-03-24T05:39:46.953Z,97028.34
2023-03-24T05:45:41.994Z,97019.03
2023-03-24T05:51:17.986Z,97021.16
2023-03-24T05:56:52.036Z,97011.81
2023-03-24T06:02:28.119Z,97009.75
2023-03-24T06:07:57.990Z,97014.53
2023-03-24T06:13:25.987Z,97011.19
2023-03-24T06:18:59.989Z,97013.69
2023-03-24T06:24:40.011Z,97018.66
2023-03-24T06:30:05.015Z,97001.81
2023-03-24T06:35:33.052Z,97022.78
2023-03-24T06:41:01.220Z,97011.34
2023-03-24T06:46:26.057Z,97009.47
2023-03-24T06:52:01.019Z,97008.19
2023-03-24T06:57:30.028Z,97028.94
2023-03-24T07:03:15.124Z,97023.53
2023-03-24T07:09:02.352Z,97027.50
2023-03-24T07:14:28.005Z,97022.69
2023-03-24T07:19:55.062Z,97012.91
2023-03-24T07:25:41.011Z,97011.00
2023-03-24T07:31:19.033Z,97013.34
2023-03-24T07:36:50.021Z,97041.84
2023-03-24T07:42:18.048Z,97036.03
2023-03-24T07:48:11.133Z,97058.53
2023-03-24T07:53:43.040Z,97049.38
2023-03-24T07:59:19.067Z,97085.13
2023-03-24T08:04:44.160Z,97068.47
2023-03-24T08:10:37.066Z,97075.13
2023-03-24T08:16:04.193Z,97057.84
2023-03-24T08:21:29.076Z,97071.78
2023-03-24T08:26:53.144Z,97068.41
2023-03-24T08:32:21.100Z,97060.47
2023-03-24T08:37:45.075Z,97076.69
2023-03-24T08:43:12.047Z,97064.41
2023-03-24T08:48:40.079Z,97057.50
2023-03-24T08:54:11.058Z,97051.16
2023-03-24T08:59:36.175Z,97050.72
2023-03-24T09:05:03.211Z,97053.94
2023-03-24T09:10:29.072Z,97042.25
2023-03-24T09:15:55.085Z,97055.00
2023-03-24T09:21:23.071Z,97064.75
2023-03-24T09:26:47.073Z,97068.53
2023-03-24T09:32:12.088Z,97055.63
2023-03-24T09:37:39.157Z,97045.16
2023-03-24T09:43:10.093Z,97043.00
2023-03-24T09:48:42.097Z,97054.16
2023-03-24T09:54:24.101Z,97059.06
2023-03-24T09:59:50.103Z,97065.88
2023-03-24T10:05:14.135Z,97054.94
2023-03-24T10:10:50.154Z,97063.22
2023-03-24T10:16:22.192Z,97058.78
2023-03-24T10:21:56.121Z,97070.00
2023-03-24T10:27:33.115Z,97059.41
2023-03-24T10:32:58.432Z,97065.63
2023-03-24T10:38:33.130Z,97041.59
2023-03-24T10:44:03.159Z,97052.16
2023-03-24T10:49:32.139Z,97052.97
2023-03-24T10:55:05.164Z,97070.81
2023-03-24T11:00:42.772Z,97090.44
2023-03-24T11:06:10.193Z,97092.06
2023-03-24T11:11:47.148Z,97100.09
2023-03-24T11:17:22.143Z,97105.38
2023-03-24T11:22:46.161Z,97127.75
2023-03-24T11:28:15.176Z,97116.53
2023-03-24T11:33:46.212Z,97137.47
2023-03-24T11:39:14.176Z,97171.63
2023-03-24T11:44:41.333Z,97187.91
2023-03-24T11:50:24.205Z,97202.63
2023-03-24T11:56:00.188Z,97209.66
2023-03-24T12:01:36.226Z,97245.22
2023-03-24T12:07:18.216Z,97239.88
2023-03-24T12:12:54.178Z,97233.44
2023-03-24T12:18:36.177Z,97234.09
2023-03-24T12:24:09.198Z,97231.63
2023-03-24T12:29:52.244Z,97228.72
2023-03-24T12:35:53.248Z,97234.41
2023-03-24T12:41:49.213Z,97250.53
2023-03-24T12:47:28.217Z,97256.28
2023-03-24T12:53:14.434Z,97237.09
2023-03-24T12:58:57.231Z,97248.94
2023-03-24T13:04:28.225Z,97262.47
2023-03-24T13:10:00.229Z,97239.28
2023-03-24T13:15:32.210Z,97231.19
2023-03-24T13:20:59.224Z,97219.41
2023-03-24T13:26:33.368Z,97189.47
2023-03-24T13:32:05.335Z,97164.72
2023-03-24T13:37:33.231Z,97191.00
2023-03-24T13:43:09.274Z,97190.59
2023-03-24T13:48:50.364Z,97184.22
2023-03-24T13:54:22.247Z,97199.22
2023-03-24T13:59:48.253Z,97169.56
2023-03-24T14:05:19.259Z,97186.66
2023-03-24T14:10:57.567Z,97155.16
2023-03-24T14:16:46.553Z,97136.91
2023-03-24T14:22:27.291Z,97139.91
2023-03-24T14:27:53.288Z,97130.28
2023-03-24T14:33:18.265Z,97142.59
2023-03-24T14:38:50.320Z,97141.78
2023-03-24T14:44:17.461Z,97131.91
2023-03-24T14:49:49.267Z,97140.88
2023-03-24T14:55:24.262Z,97134.78
2023-03-24T15:01:06.514Z,97145.78
2023-03-24T15:06:34.378Z,97119.84
2023-03-24T15:12:09.297Z,97137.53
2023-03-24T15:17:35.491Z,97132.31
2023-03-24T15:23:02.288Z,97125.06
2023-03-24T15:28:34.263Z,97110.13
2023-03-24T15:34:00.273Z,97128.81
2023-03-24T15:39:30.282Z,97142.13
2023-03-24T15:44:57.322Z,97138.38
2023-03-24T15:50:40.310Z,97147.13
2023-03-24T15:56:19.521Z,97131.94
2023-03-24T16:01:48.550Z,97122.56
2023-03-24T16:07:14.313Z,97122.78
2023-03-24T16:12:40.307Z,97131.72
2023-03-24T16:18:07.359Z,97127.31
2023-03-24T16:23:33.408Z,97140.88
2023-03-24T16:28:58.473Z,97164.38
2023-03-24T16:34:27.390Z,97172.06
2023-03-24T16:39:52.312Z,97171.81
2023-03-24T16:45:19.334Z,97163.69
2023-03-24T16:50:56.488Z,97172.56
2023-03-24T16:56:24.514Z,97194.84
2023-03-24T17:01:52.407Z,97191.81
2023-03-24T17:07:20.412Z,97189.75
2023-03-24T17:12:45.380Z,97186.25
2023-03-24T17:18:12.439Z,97176.94
2023-03-24T17:23:41.418Z,97191.03
2023-03-24T17:29:10.399Z,97185.59
2023-03-24T17:34:36.357Z,97194.66
2023-03-24T17:40:05.395Z,97191.41
2023-03-24T17:45:32.388Z,97205.41
2023-03-24T17:51:04.376Z,97212.75
2023-03-24T17:56:31.388Z,97209.03
2023-03-24T18:01:55.367Z,97222.81
2023-03-24T18:07:20.704Z,97213.41
2023-03-24T18:12:47.469Z,97215.75
2023-03-24T18:18:12.401Z,97211.91
2023-03-24T18:23:39.389Z,97210.16
2023-03-24T18:29:07.652Z,97207.81
2023-03-24T18:34:33.369Z,97227.47
2023-03-24T18:39:58.377Z,97233.31
2023-03-24T18:45:26.407Z,97239.91
2023-03-24T18:50:58.404Z,97235.47
2023-03-24T18:56:24.392Z,97239.09
2023-03-24T19:01:55.388Z,97238.19
2023-03-24T19:07:21.414Z,97241.81
2023-03-24T19:12:45.450Z,97238.84
2023-03-24T19:18:13.486Z,97231.44
2023-03-24T19:23:37.427Z,97240.72
2023-03-24T19:29:04.403Z,97241.06
2023-03-24T19:34:33.848Z,97244.13
2023-03-24T19:39:59.599Z,97246.81
2023-03-24T19:45:25.519Z,97231.44
2023-03-24T19:51:00.462Z,97244.22
2023-03-24T19:56:27.464Z,97251.63
2023-03-24T20:01:51.464Z,97252.56
2023-03-24T20:07:19.451Z,97249.31
2023-03-24T20:12:43.453Z,97259.59
2023-03-24T20:18:08.447Z,97257.69
2023-03-24T20:23:35.483Z,97258.31
2023-03-24T20:29:06.056Z,97272.19
2023-03-24T20:34:29.484Z,97268.59
2023-03-24T20:39:57.573Z,97274.91
2023-03-24T20:45:25.500Z,97276.03
2023-03-24T20:50:56.472Z,97269.22
2023-03-24T20:56:25.740Z,97279.13
2023-03-24T21:01:50.751Z,97274.22
2023-03-24T21:07:15.488Z,97268.00
2023-03-24T21:12:53.929Z,97268.19
2023-03-24T21:18:19.452Z,97277.75
2023-03-24T21:23:45.508Z,97282.25
2023-03-24T21:29:13.503Z,97279.72
2023-03-24T21:34:38.545Z,97278.69
2023-03-24T21:40:03.513Z,97275.81
2023-03-24T21:45:34.543Z,97273.38
2023-03-24T21:51:06.477Z,97258.19
2023-03-24T21:56:31.532Z,97251.88
2023-03-24T22:01:59.650Z,97247.09
2023-03-24T22:07:29.509Z,97245.16
2023-03-24T22:12:54.533Z,97253.34
2023-03-24T22:18:22.756Z,97244.91
2023-03-24T22:23:49.521Z,97239.19
2023-03-24T22:29:14.514Z,97246.13
2023-03-24T22:34:42.503Z,97264.09
2023-03-24T22:40:07.673Z,97283.00
2023-03-24T22:45:31.524Z,97279.34
2023-03-24T22:51:05.528Z,97279.34
2023-03-24T22:56:32.590Z,97282.75
2023-03-24T23:02:06.350Z,97257.72
2023-03-24T23:07:36.511Z,97270.22
2023-03-24T23:13:01.538Z,97267.44
2023-03-24T23:18:27.545Z,97262.25
2023-03-24T23:23:55.589Z,97257.00
2023-03-24T23:29:20.520Z,97255.38
2023-03-24T23:34:44.520Z,97263.03
2023-03-24T23:40:21.560Z,97257.44
2023-03-24T23:45:46.667Z,97252.94
2023-03-24T23:51:11.550Z,97267.28
2023-03-24T23:56:43.606Z,97269.56
